• 1
  • 2
  • 1

WebCam

  
Kamera Halle
Kamera Vorfeld

GPS Triangle WM Sports Class

AeroClub Göppingen-Salach e.V.
Ausrichter der Modellflug
GPS Triangle-WM 2020

Wetter EDDS

METAR

EDDS 250250Z 24003KT 200V290 CAVOK 06/03 Q1008 =
EDDS 242300Z 2500/2524 22007KT 9999 SCT030 BECMG 2508/2511 22012KT PROB30 TEMPO 2511/2516 23015G25KT PROB30 TEMPO 2521/2524 23015G25KT 4000 SHRA BKN020CB


TAF

EDDS 242300Z 2500/2524 22007KT 9999 SCT030 BECMG 2508/2511 22012KT PROB30 TEMPO 2511/2516 23015G25KT PROB30 TEMPO 2521/2524 23015G25KT 4000 SHRA BKN020CB =


SR/SS

06:11 / 16:57 UTC
(EDSO 25-02-2020)